MUCU/SCU METAR and TAF weather

Enter ICAO airport designator
Station Type Date Time Source
MUCU METAR 2018/12/17 01:50 UTC NOAA

MUCU 170150Z VRB02KT 9000 FEW020 23/19 Q1018


Station Type Date Time Source
MUCU Decoded METAR 2018/12/17 01:50 UTC NOAA

Santiago De Cuba, Oriente, Cuba (MUCU) 19-58N 075-51W 55M
Dec 16, 2018 - 08:50 PM EST / 2018.12.17 0150 UTC
Wind: Variable at 2 MPH (2 KT):0
Visibility: 5 mile(s):0
Sky conditions: mostly clear
Temperature: 73 F (23 C)
Dew Point: 66 F (19 C)
Relative Humidity: 78%
Pressure (altimeter): 30.06 in. Hg (1018 hPa)
ob: MUCU 170150Z VRB02KT 9000 FEW020 23/19 Q1018
cycle: 2

Station Type Date Time Source
MUCU TAF 2018/12/16 18:03 UTC NOAA

TAF MUCU 161700Z 1618/1718 18007KT 9000 SCT020
BECMG 1701/1703 36005KT
BECMG 1713/1715 18007KT


Example: see airport list